sensor_id;sensor_type;location;lat;lon;timestamp;P1;durP1;ratioP1;P2;durP2;ratioP2
40284;SDS011;25997;50.214;19.354;2023-05-10T00:00:08;6.22;;;4.10;;
40284;SDS011;25997;50.214;19.354;2023-05-10T00:03:15;7.72;;;4.22;;
40284;SDS011;25997;50.214;19.354;2023-05-10T00:06:17;7.85;;;4.47;;
40284;SDS011;25997;50.214;19.354;2023-05-10T00:09:19;5.78;;;4.20;;
40284;SDS011;25997;50.214;19.354;2023-05-10T00:12:23;6.25;;;4.53;;
40284;SDS011;25997;50.214;19.354;2023-05-10T00:15:26;6.60;;;3.78;;
40284;SDS011;25997;50.214;19.354;2023-05-10T00:18:28;7.28;;;4.30;;
40284;SDS011;25997;50.214;19.354;2023-05-10T00:21:31;7.68;;;4.80;;
40284;SDS011;25997;50.214;19.354;2023-05-10T00:24:34;5.72;;;3.95;;
40284;SDS011;25997;50.214;19.354;2023-05-10T00:27:38;8.55;;;4.13;;
40284;SDS011;25997;50.214;19.354;2023-05-10T00:30:40;7.60;;;4.40;;
40284;SDS011;25997;50.214;19.354;2023-05-10T00:33:42;5.45;;;3.95;;
40284;SDS011;25997;50.214;19.354;2023-05-10T00:36:45;6.68;;;4.00;;
40284;SDS011;25997;50.214;19.354;2023-05-10T00:39:47;6.28;;;3.97;;
40284;SDS011;25997;50.214;19.354;2023-05-10T00:42:51;8.00;;;4.18;;
40284;SDS011;25997;50.214;19.354;2023-05-10T00:45:55;5.70;;;3.58;;
40284;SDS011;25997;50.214;19.354;2023-05-10T00:48:57;6.25;;;3.63;;
40284;SDS011;25997;50.214;19.354;2023-05-10T00:52:00;9.15;;;3.85;;
40284;SDS011;25997;50.214;19.354;2023-05-10T00:55:03;4.82;;;3.45;;
40284;SDS011;25997;50.214;19.354;2023-05-10T00:58:09;5.72;;;3.92;;
40284;SDS011;25997;50.214;19.354;2023-05-10T01:01:11;7.63;;;4.32;;
40284;SDS011;25997;50.214;19.354;2023-05-10T01:04:15;5.57;;;3.63;;
40284;SDS011;25997;50.214;19.354;2023-05-10T01:07:17;6.15;;;4.18;;
40284;SDS011;25997;50.214;19.354;2023-05-10T01:10:20;4.90;;;3.80;;
40284;SDS011;25997;50.214;19.354;2023-05-10T01:13:28;6.05;;;4.05;;
40284;SDS011;25997;50.214;19.354;2023-05-10T01:16:35;6.03;;;3.90;;
40284;SDS011;25997;50.214;19.354;2023-05-10T01:19:40;5.20;;;3.58;;
40284;SDS011;25997;50.214;19.354;2023-05-10T01:22:51;5.53;;;3.80;;
40284;SDS011;25997;50.214;19.354;2023-05-10T01:26:19;7.00;;;3.78;;
40284;SDS011;25997;50.214;19.354;2023-05-10T01:30:05;4.75;;;3.22;;
40284;SDS011;25997;50.214;19.354;2023-05-10T01:33:37;6.72;;;3.42;;
40284;SDS011;25997;50.214;19.354;2023-05-10T01:36:45;5.72;;;3.20;;
40284;SDS011;25997;50.214;19.354;2023-05-10T01:39:54;5.47;;;3.38;;
40284;SDS011;25997;50.214;19.354;2023-05-10T01:43:01;4.88;;;3.30;;
40284;SDS011;25997;50.214;19.354;2023-05-10T01:46:07;6.30;;;3.65;;
40284;SDS011;25997;50.214;19.354;2023-05-10T01:49:20;4.65;;;3.35;;
40284;SDS011;25997;50.214;19.354;2023-05-10T01:52:27;5.00;;;3.20;;
40284;SDS011;25997;50.214;19.354;2023-05-10T01:55:35;7.35;;;3.20;;
40284;SDS011;25997;50.214;19.354;2023-05-10T01:58:43;4.95;;;3.50;;
40284;SDS011;25997;50.214;19.354;2023-05-10T02:01:49;6.53;;;3.80;;
40284;SDS011;25997;50.214;19.354;2023-05-10T02:04:55;4.93;;;3.33;;
40284;SDS011;25997;50.214;19.354;2023-05-10T02:08:01;5.07;;;3.45;;
40284;SDS011;25997;50.214;19.354;2023-05-10T02:11:07;6.00;;;3.65;;
40284;SDS011;25997;50.214;19.354;2023-05-10T02:14:13;5.63;;;4.00;;
40284;SDS011;25997;50.214;19.354;2023-05-10T02:17:17;4.70;;;3.10;;
40284;SDS011;25997;50.214;19.354;2023-05-10T02:20:23;6.03;;;3.80;;
40284;SDS011;25997;50.214;19.354;2023-05-10T02:23:26;6.68;;;5.13;;
40284;SDS011;25997;50.214;19.354;2023-05-10T02:26:30;16.70;;;12.63;;
40284;SDS011;25997;50.214;19.354;2023-05-10T02:29:35;20.50;;;12.38;;
40284;SDS011;25997;50.214;19.354;2023-05-10T02:32:38;17.20;;;11.90;;
40284;SDS011;25997;50.214;19.354;2023-05-10T02:35:43;20.65;;;13.57;;
40284;SDS011;25997;50.214;19.354;2023-05-10T02:38:46;17.27;;;11.88;;
40284;SDS011;25997;50.214;19.354;2023-05-10T02:41:50;15.40;;;12.02;;
40284;SDS011;25997;50.214;19.354;2023-05-10T02:44:56;19.50;;;13.30;;
40284;SDS011;25997;50.214;19.354;2023-05-10T02:48:02;25.40;;;16.45;;
40284;SDS011;25997;50.214;19.354;2023-05-10T02:51:07;23.42;;;16.30;;
40284;SDS011;25997;50.214;19.354;2023-05-10T02:54:10;26.80;;;18.33;;
40284;SDS011;25997;50.214;19.354;2023-05-10T02:57:17;20.58;;;14.98;;
40284;SDS011;25997;50.214;19.354;2023-05-10T03:00:27;13.48;;;10.93;;
40284;SDS011;25997;50.214;19.354;2023-05-10T03:03:29;13.23;;;11.00;;
40284;SDS011;25997;50.214;19.354;2023-05-10T03:06:34;18.52;;;13.43;;
40284;SDS011;25997;50.214;19.354;2023-05-10T03:09:37;26.80;;;18.85;;
40284;SDS011;25997;50.214;19.354;2023-05-10T03:12:44;24.02;;;19.10;;
40284;SDS011;25997;50.214;19.354;2023-05-10T03:15:59;17.27;;;13.52;;
40284;SDS011;25997;50.214;19.354;2023-05-10T03:19:11;16.30;;;11.93;;
40284;SDS011;25997;50.214;19.354;2023-05-10T03:22:20;15.40;;;12.25;;
40284;SDS011;25997;50.214;19.354;2023-05-10T03:25:26;14.80;;;11.47;;
40284;SDS011;25997;50.214;19.354;2023-05-10T03:28:31;18.55;;;12.55;;
40284;SDS011;25997;50.214;19.354;2023-05-10T03:31:38;20.58;;;13.57;;
40284;SDS011;25997;50.214;19.354;2023-05-10T03:34:41;15.82;;;12.45;;
40284;SDS011;25997;50.214;19.354;2023-05-10T03:37:45;21.35;;;14.20;;
40284;SDS011;25997;50.214;19.354;2023-05-10T03:40:48;26.10;;;18.02;;
40284;SDS011;25997;50.214;19.354;2023-05-10T03:43:51;30.50;;;19.73;;
40284;SDS011;25997;50.214;19.354;2023-05-10T03:46:53;38.13;;;24.40;;
40284;SDS011;25997;50.214;19.354;2023-05-10T03:49:58;58.05;;;34.55;;
40284;SDS011;25997;50.214;19.354;2023-05-10T03:53:02;36.63;;;24.88;;
40284;SDS011;25997;50.214;19.354;2023-05-10T03:56:05;39.58;;;26.17;;
40284;SDS011;25997;50.214;19.354;2023-05-10T03:59:07;34.67;;;25.58;;
40284;SDS011;25997;50.214;19.354;2023-05-10T04:02:10;30.63;;;23.63;;
40284;SDS011;25997;50.214;19.354;2023-05-10T04:05:12;31.73;;;22.27;;
40284;SDS011;25997;50.214;19.354;2023-05-10T04:08:17;33.10;;;22.95;;
40284;SDS011;25997;50.214;19.354;2023-05-10T04:11:19;32.30;;;23.20;;
40284;SDS011;25997;50.214;19.354;2023-05-10T04:14:22;25.52;;;20.35;;
40284;SDS011;25997;50.214;19.354;2023-05-10T04:17:25;27.63;;;21.45;;
40284;SDS011;25997;50.214;19.354;2023-05-10T04:20:27;30.98;;;22.92;;
40284;SDS011;25997;50.214;19.354;2023-05-10T04:23:31;32.08;;;24.38;;
40284;SDS011;25997;50.214;19.354;2023-05-10T04:26:33;34.13;;;26.58;;
40284;SDS011;25997;50.214;19.354;2023-05-10T04:29:36;20.98;;;17.02;;
40284;SDS011;25997;50.214;19.354;2023-05-10T04:32:38;17.40;;;14.10;;
40284;SDS011;25997;50.214;19.354;2023-05-10T04:35:41;28.30;;;20.88;;
40284;SDS011;25997;50.214;19.354;2023-05-10T04:38:46;35.80;;;25.20;;
40284;SDS011;25997;50.214;19.354;2023-05-10T04:41:49;33.80;;;23.70;;
40284;SDS011;25997;50.214;19.354;2023-05-10T04:44:51;36.72;;;23.67;;
40284;SDS011;25997;50.214;19.354;2023-05-10T04:47:54;29.13;;;20.83;;
40284;SDS011;25997;50.214;19.354;2023-05-10T04:50:56;30.42;;;20.85;;
40284;SDS011;25997;50.214;19.354;2023-05-10T04:54:00;29.77;;;18.40;;
40284;SDS011;25997;50.214;19.354;2023-05-10T04:57:02;21.33;;;14.43;;
40284;SDS011;25997;50.214;19.354;2023-05-10T05:00:05;15.50;;;10.88;;
40284;SDS011;25997;50.214;19.354;2023-05-10T05:03:09;17.63;;;11.52;;
40284;SDS011;25997;50.214;19.354;2023-05-10T05:06:11;10.55;;;7.90;;
40284;SDS011;25997;50.214;19.354;2023-05-10T05:09:15;8.63;;;6.45;;
40284;SDS011;25997;50.214;19.354;2023-05-10T05:12:19;7.32;;;5.22;;
40284;SDS011;25997;50.214;19.354;2023-05-10T05:15:21;5.38;;;4.05;;
40284;SDS011;25997;50.214;19.354;2023-05-10T05:18:24;6.63;;;3.90;;
40284;SDS011;25997;50.214;19.354;2023-05-10T05:21:26;5.43;;;3.58;;
40284;SDS011;25997;50.214;19.354;2023-05-10T05:24:32;4.90;;;3.58;;
40284;SDS011;25997;50.214;19.354;2023-05-10T05:27:38;4.55;;;3.28;;
40284;SDS011;25997;50.214;19.354;2023-05-10T05:30:40;4.80;;;3.00;;
40284;SDS011;25997;50.214;19.354;2023-05-10T05:33:42;4.03;;;3.35;;
40284;SDS011;25997;50.214;19.354;2023-05-10T05:36:45;6.45;;;3.45;;
40284;SDS011;25997;50.214;19.354;2023-05-10T05:39:49;4.78;;;3.38;;
40284;SDS011;25997;50.214;19.354;2023-05-10T05:42:52;5.85;;;3.28;;
40284;SDS011;25997;50.214;19.354;2023-05-10T05:45:54;5.22;;;3.03;;
40284;SDS011;25997;50.214;19.354;2023-05-10T05:48:58;3.92;;;2.95;;
40284;SDS011;25997;50.214;19.354;2023-05-10T05:52:00;4.53;;;3.13;;
40284;SDS011;25997;50.214;19.354;2023-05-10T05:55:05;5.63;;;3.47;;
40284;SDS011;25997;50.214;19.354;2023-05-10T05:58:08;4.68;;;3.13;;
40284;SDS011;25997;50.214;19.354;2023-05-10T06:01:10;5.63;;;3.55;;
40284;SDS011;25997;50.214;19.354;2023-05-10T06:04:13;6.20;;;3.30;;
40284;SDS011;25997;50.214;19.354;2023-05-10T06:07:15;4.45;;;3.38;;
40284;SDS011;25997;50.214;19.354;2023-05-10T06:10:19;5.47;;;3.28;;
40284;SDS011;25997;50.214;19.354;2023-05-10T06:13:22;5.63;;;3.08;;
40284;SDS011;25997;50.214;19.354;2023-05-10T06:16:25;3.20;;;2.45;;
40284;SDS011;25997;50.214;19.354;2023-05-10T06:19:27;6.03;;;3.25;;
40284;SDS011;25997;50.214;19.354;2023-05-10T06:22:29;4.22;;;3.03;;
40284;SDS011;25997;50.214;19.354;2023-05-10T06:25:33;5.95;;;3.05;;
40284;SDS011;25997;50.214;19.354;2023-05-10T06:28:35;7.07;;;3.17;;
40284;SDS011;25997;50.214;19.354;2023-05-10T06:31:38;4.40;;;2.92;;
40284;SDS011;25997;50.214;19.354;2023-05-10T06:34:41;4.80;;;2.65;;
40284;SDS011;25997;50.214;19.354;2023-05-10T06:37:45;7.93;;;3.08;;
40284;SDS011;25997;50.214;19.354;2023-05-10T06:40:49;4.32;;;2.83;;
40284;SDS011;25997;50.214;19.354;2023-05-10T06:43:51;5.28;;;2.83;;
40284;SDS011;25997;50.214;19.354;2023-05-10T06:46:54;4.00;;;2.63;;
40284;SDS011;25997;50.214;19.354;2023-05-10T06:49:56;4.00;;;2.60;;
40284;SDS011;25997;50.214;19.354;2023-05-10T06:52:59;4.05;;;2.75;;
40284;SDS011;25997;50.214;19.354;2023-05-10T06:56:03;2.85;;;2.30;;
40284;SDS011;25997;50.214;19.354;2023-05-10T06:59:06;3.72;;;2.55;;
40284;SDS011;25997;50.214;19.354;2023-05-10T07:02:08;4.13;;;2.53;;
40284;SDS011;25997;50.214;19.354;2023-05-10T07:05:11;3.60;;;2.67;;
40284;SDS011;25997;50.214;19.354;2023-05-10T07:08:13;3.25;;;2.35;;
40284;SDS011;25997;50.214;19.354;2023-05-10T07:11:17;3.78;;;2.63;;
40284;SDS011;25997;50.214;19.354;2023-05-10T07:14:19;6.18;;;2.42;;
40284;SDS011;25997;50.214;19.354;2023-05-10T07:17:22;4.10;;;2.03;;
40284;SDS011;25997;50.214;19.354;2023-05-10T07:20:24;2.72;;;2.03;;
40284;SDS011;25997;50.214;19.354;2023-05-10T07:23:27;3.35;;;2.25;;
40284;SDS011;25997;50.214;19.354;2023-05-10T07:26:31;4.05;;;2.33;;
40284;SDS011;25997;50.214;19.354;2023-05-10T07:29:33;2.78;;;1.75;;
40284;SDS011;25997;50.214;19.354;2023-05-10T07:32:36;3.63;;;2.15;;
40284;SDS011;25997;50.214;19.354;2023-05-10T07:35:39;4.78;;;2.50;;
40284;SDS011;25997;50.214;19.354;2023-05-10T07:38:42;6.40;;;2.78;;
40284;SDS011;25997;50.214;19.354;2023-05-10T07:41:46;4.13;;;2.10;;
40284;SDS011;25997;50.214;19.354;2023-05-10T07:44:48;2.78;;;1.90;;
40284;SDS011;25997;50.214;19.354;2023-05-10T07:47:51;5.18;;;2.25;;
40284;SDS011;25997;50.214;19.354;2023-05-10T07:50:54;4.32;;;2.05;;
40284;SDS011;25997;50.214;19.354;2023-05-10T07:53:56;3.45;;;2.35;;
40284;SDS011;25997;50.214;19.354;2023-05-10T07:57:00;3.25;;;2.22;;
40284;SDS011;25997;50.214;19.354;2023-05-10T08:00:03;2.90;;;2.15;;
40284;SDS011;25997;50.214;19.354;2023-05-10T08:03:13;4.25;;;2.00;;
40284;SDS011;25997;50.214;19.354;2023-05-10T08:06:17;4.65;;;1.92;;
40284;SDS011;25997;50.214;19.354;2023-05-10T08:09:20;4.38;;;2.20;;
40284;SDS011;25997;50.214;19.354;2023-05-10T08:12:25;3.28;;;1.95;;
40284;SDS011;25997;50.214;19.354;2023-05-10T08:15:28;5.72;;;2.58;;
40284;SDS011;25997;50.214;19.354;2023-05-10T08:18:30;3.53;;;2.45;;
40284;SDS011;25997;50.214;19.354;2023-05-10T08:21:33;3.03;;;1.85;;
40284;SDS011;25997;50.214;19.354;2023-05-10T08:24:38;2.60;;;1.90;;
40284;SDS011;25997;50.214;19.354;2023-05-10T08:27:43;5.40;;;1.77;;
40284;SDS011;25997;50.214;19.354;2023-05-10T08:30:46;4.45;;;2.15;;
40284;SDS011;25997;50.214;19.354;2023-05-10T08:33:48;3.22;;;2.00;;
40284;SDS011;25997;50.214;19.354;2023-05-10T08:36:52;3.20;;;1.90;;
40284;SDS011;25997;50.214;19.354;2023-05-10T08:39:54;2.95;;;1.92;;
40284;SDS011;25997;50.214;19.354;2023-05-10T08:43:02;2.65;;;1.85;;
40284;SDS011;25997;50.214;19.354;2023-05-10T08:46:07;5.68;;;2.10;;
40284;SDS011;25997;50.214;19.354;2023-05-10T08:49:11;2.95;;;2.13;;
40284;SDS011;25997;50.214;19.354;2023-05-10T08:52:18;3.65;;;1.75;;
40284;SDS011;25997;50.214;19.354;2023-05-10T08:55:21;3.63;;;2.00;;
40284;SDS011;25997;50.214;19.354;2023-05-10T08:58:26;2.92;;;1.67;;
40284;SDS011;25997;50.214;19.354;2023-05-10T09:01:29;2.53;;;1.67;;
40284;SDS011;25997;50.214;19.354;2023-05-10T09:04:34;2.97;;;1.83;;
40284;SDS011;25997;50.214;19.354;2023-05-10T09:07:37;5.72;;;2.25;;
40284;SDS011;25997;50.214;19.354;2023-05-10T09:10:39;2.90;;;2.10;;
40284;SDS011;25997;50.214;19.354;2023-05-10T09:13:45;4.03;;;1.98;;
40284;SDS011;25997;50.214;19.354;2023-05-10T09:16:49;3.22;;;1.92;;
40284;SDS011;25997;50.214;19.354;2023-05-10T09:19:56;4.10;;;1.88;;
40284;SDS011;25997;50.214;19.354;2023-05-10T09:23:00;2.38;;;1.80;;
40284;SDS011;25997;50.214;19.354;2023-05-10T09:26:02;2.63;;;1.83;;
40284;SDS011;25997;50.214;19.354;2023-05-10T09:29:06;4.75;;;2.75;;
40284;SDS011;25997;50.214;19.354;2023-05-10T09:32:08;3.40;;;2.42;;
40284;SDS011;25997;50.214;19.354;2023-05-10T09:35:12;5.88;;;2.55;;
40284;SDS011;25997;50.214;19.354;2023-05-10T09:38:16;5.38;;;2.90;;
40284;SDS011;25997;50.214;19.354;2023-05-10T09:41:18;3.38;;;2.38;;
40284;SDS011;25997;50.214;19.354;2023-05-10T09:44:23;2.97;;;2.00;;
40284;SDS011;25997;50.214;19.354;2023-05-10T09:47:27;3.55;;;2.10;;
40284;SDS011;25997;50.214;19.354;2023-05-10T09:50:30;3.95;;;2.50;;
40284;SDS011;25997;50.214;19.354;2023-05-10T09:53:34;4.88;;;2.70;;
40284;SDS011;25997;50.214;19.354;2023-05-10T09:56:37;2.92;;;1.83;;
40284;SDS011;25997;50.214;19.354;2023-05-10T09:59:43;3.65;;;2.78;;
40284;SDS011;25997;50.214;19.354;2023-05-10T10:02:47;3.88;;;2.75;;
40284;SDS011;25997;50.214;19.354;2023-05-10T10:05:56;3.03;;;2.08;;
40284;SDS011;25997;50.214;19.354;2023-05-10T10:08:58;2.65;;;2.03;;
40284;SDS011;25997;50.214;19.354;2023-05-10T10:12:01;2.85;;;2.38;;
40284;SDS011;25997;50.214;19.354;2023-05-10T10:15:07;4.20;;;2.15;;
40284;SDS011;25997;50.214;19.354;2023-05-10T10:18:12;2.95;;;2.58;;
40284;SDS011;25997;50.214;19.354;2023-05-10T10:21:15;2.60;;;2.00;;
40284;SDS011;25997;50.214;19.354;2023-05-10T10:24:19;4.45;;;2.75;;
40284;SDS011;25997;50.214;19.354;2023-05-10T10:27:23;3.05;;;2.25;;
40284;SDS011;25997;50.214;19.354;2023-05-10T10:30:35;5.35;;;2.78;;
40284;SDS011;25997;50.214;19.354;2023-05-10T10:33:49;3.58;;;2.85;;
40284;SDS011;25997;50.214;19.354;2023-05-10T10:36:59;3.90;;;2.95;;
40284;SDS011;25997;50.214;19.354;2023-05-10T10:43:27;3.08;;;2.67;;
40284;SDS011;25997;50.214;19.354;2023-05-10T10:46:32;3.05;;;2.50;;
40284;SDS011;25997;50.214;19.354;2023-05-10T10:49:43;2.90;;;2.17;;
40284;SDS011;25997;50.214;19.354;2023-05-10T10:52:50;3.75;;;2.63;;
40284;SDS011;25997;50.214;19.354;2023-05-10T10:56:01;2.45;;;2.00;;
40284;SDS011;25997;50.214;19.354;2023-05-10T10:59:08;3.70;;;2.38;;
40284;SDS011;25997;50.214;19.354;2023-05-10T11:02:12;2.63;;;2.00;;
40284;SDS011;25997;50.214;19.354;2023-05-10T11:05:35;3.08;;;2.30;;
40284;SDS011;25997;50.214;19.354;2023-05-10T11:08:42;3.55;;;2.70;;
40284;SDS011;25997;50.214;19.354;2023-05-10T11:11:49;3.25;;;2.50;;
40284;SDS011;25997;50.214;19.354;2023-05-10T11:14:56;2.95;;;2.67;;
40284;SDS011;25997;50.214;19.354;2023-05-10T11:18:01;3.72;;;2.50;;
40284;SDS011;25997;50.214;19.354;2023-05-10T11:21:18;3.10;;;2.38;;
40284;SDS011;25997;50.214;19.354;2023-05-10T11:24:22;4.43;;;3.30;;
40284;SDS011;25997;50.214;19.354;2023-05-10T11:27:28;3.25;;;2.58;;
40284;SDS011;25997;50.214;19.354;2023-05-10T11:30:31;3.80;;;2.60;;
40284;SDS011;25997;50.214;19.354;2023-05-10T11:33:43;2.63;;;2.40;;
40284;SDS011;25997;50.214;19.354;2023-05-10T11:36:50;2.85;;;2.40;;
40284;SDS011;25997;50.214;19.354;2023-05-10T11:42:56;3.53;;;2.25;;
40284;SDS011;25997;50.214;19.354;2023-05-10T11:45:59;2.60;;;2.33;;
40284;SDS011;25997;50.214;19.354;2023-05-10T11:49:03;3.63;;;3.13;;
40284;SDS011;25997;50.214;19.354;2023-05-10T11:52:07;3.03;;;2.67;;
40284;SDS011;25997;50.214;19.354;2023-05-10T11:55:11;4.68;;;2.40;;
40284;SDS011;25997;50.214;19.354;2023-05-10T11:58:14;3.45;;;2.35;;
40284;SDS011;25997;50.214;19.354;2023-05-10T12:01:16;3.13;;;2.42;;
40284;SDS011;25997;50.214;19.354;2023-05-10T12:04:20;4.57;;;2.47;;
40284;SDS011;25997;50.214;19.354;2023-05-10T12:07:23;5.10;;;2.72;;
40284;SDS011;25997;50.214;19.354;2023-05-10T12:10:28;3.13;;;2.80;;
40284;SDS011;25997;50.214;19.354;2023-05-10T12:13:30;3.78;;;2.88;;
40284;SDS011;25997;50.214;19.354;2023-05-10T12:16:33;3.67;;;3.30;;
40284;SDS011;25997;50.214;19.354;2023-05-10T12:19:40;4.50;;;2.72;;
40284;SDS011;25997;50.214;19.354;2023-05-10T12:22:48;2.50;;;2.30;;
40284;SDS011;25997;50.214;19.354;2023-05-10T12:25:53;2.95;;;2.60;;
40284;SDS011;25997;50.214;19.354;2023-05-10T12:29:01;4.65;;;2.55;;
40284;SDS011;25997;50.214;19.354;2023-05-10T12:32:14;3.65;;;2.65;;
40284;SDS011;25997;50.214;19.354;2023-05-10T12:35:17;4.13;;;2.83;;
40284;SDS011;25997;50.214;19.354;2023-05-10T12:38:24;4.90;;;3.00;;
40284;SDS011;25997;50.214;19.354;2023-05-10T12:41:31;2.90;;;2.58;;
40284;SDS011;25997;50.214;19.354;2023-05-10T12:44:33;3.70;;;2.90;;
40284;SDS011;25997;50.214;19.354;2023-05-10T12:47:36;4.57;;;2.40;;
40284;SDS011;25997;50.214;19.354;2023-05-10T12:50:40;3.97;;;2.40;;
40284;SDS011;25997;50.214;19.354;2023-05-10T12:53:43;3.20;;;2.38;;
40284;SDS011;25997;50.214;19.354;2023-05-10T12:56:48;3.35;;;2.50;;
40284;SDS011;25997;50.214;19.354;2023-05-10T12:59:50;3.22;;;2.08;;
40284;SDS011;25997;50.214;19.354;2023-05-10T13:02:53;2.55;;;2.35;;
40284;SDS011;25997;50.214;19.354;2023-05-10T13:05:57;3.03;;;2.50;;
40284;SDS011;25997;50.214;19.354;2023-05-10T13:08:59;3.38;;;2.83;;
40284;SDS011;25997;50.214;19.354;2023-05-10T13:12:02;4.47;;;3.88;;
40284;SDS011;25997;50.214;19.354;2023-05-10T13:15:05;3.08;;;2.40;;
40284;SDS011;25997;50.214;19.354;2023-05-10T13:18:08;5.93;;;3.33;;
40284;SDS011;25997;50.214;19.354;2023-05-10T13:21:12;2.72;;;2.42;;
40284;SDS011;25997;50.214;19.354;2023-05-10T13:24:14;4.03;;;3.20;;
40284;SDS011;25997;50.214;19.354;2023-05-10T13:27:18;4.75;;;2.80;;
40284;SDS011;25997;50.214;19.354;2023-05-10T13:30:20;2.50;;;2.30;;
40284;SDS011;25997;50.214;19.354;2023-05-10T13:33:24;3.17;;;2.17;;
40284;SDS011;25997;50.214;19.354;2023-05-10T13:36:28;3.35;;;2.53;;
40284;SDS011;25997;50.214;19.354;2023-05-10T13:39:30;2.40;;;2.20;;
40284;SDS011;25997;50.214;19.354;2023-05-10T13:42:34;3.45;;;2.40;;
40284;SDS011;25997;50.214;19.354;2023-05-10T13:45:38;8.13;;;2.50;;
40284;SDS011;25997;50.214;19.354;2023-05-10T13:48:40;4.35;;;3.75;;
40284;SDS011;25997;50.214;19.354;2023-05-10T13:51:44;3.65;;;2.60;;
40284;SDS011;25997;50.214;19.354;2023-05-10T13:54:47;3.17;;;2.80;;
40284;SDS011;25997;50.214;19.354;2023-05-10T13:57:49;2.95;;;2.60;;
40284;SDS011;25997;50.214;19.354;2023-05-10T14:00:51;4.97;;;3.15;;
40284;SDS011;25997;50.214;19.354;2023-05-10T14:03:54;3.90;;;3.47;;
40284;SDS011;25997;50.214;19.354;2023-05-10T14:06:58;3.42;;;2.78;;
40284;SDS011;25997;50.214;19.354;2023-05-10T14:10:00;3.85;;;2.40;;
40284;SDS011;25997;50.214;19.354;2023-05-10T14:13:03;3.72;;;2.83;;
40284;SDS011;25997;50.214;19.354;2023-05-10T14:16:06;3.55;;;3.25;;
40284;SDS011;25997;50.214;19.354;2023-05-10T14:19:08;3.33;;;3.03;;
40284;SDS011;25997;50.214;19.354;2023-05-10T14:22:12;3.45;;;2.70;;
40284;SDS011;25997;50.214;19.354;2023-05-10T14:25:15;4.50;;;2.45;;
40284;SDS011;25997;50.214;19.354;2023-05-10T14:28:17;2.70;;;2.17;;
40284;SDS011;25997;50.214;19.354;2023-05-10T14:31:21;4.40;;;2.45;;
40284;SDS011;25997;50.214;19.354;2023-05-10T14:34:25;2.78;;;2.30;;
40284;SDS011;25997;50.214;19.354;2023-05-10T14:37:29;2.70;;;2.30;;
40284;SDS011;25997;50.214;19.354;2023-05-10T14:40:31;2.95;;;2.65;;
40284;SDS011;25997;50.214;19.354;2023-05-10T14:43:34;2.80;;;2.40;;
40284;SDS011;25997;50.214;19.354;2023-05-10T14:46:37;2.70;;;2.40;;
40284;SDS011;25997;50.214;19.354;2023-05-10T14:49:40;4.63;;;2.45;;
40284;SDS011;25997;50.214;19.354;2023-05-10T14:52:43;3.05;;;2.70;;
40284;SDS011;25997;50.214;19.354;2023-05-10T14:55:46;3.30;;;3.00;;
40284;SDS011;25997;50.214;19.354;2023-05-10T14:58:49;2.92;;;2.40;;
40284;SDS011;25997;50.214;19.354;2023-05-10T15:01:52;3.58;;;2.78;;
40284;SDS011;25997;50.214;19.354;2023-05-10T15:04:54;4.35;;;3.22;;
40284;SDS011;25997;50.214;19.354;2023-05-10T15:07:59;2.78;;;2.50;;
40284;SDS011;25997;50.214;19.354;2023-05-10T15:11:01;3.40;;;2.63;;
40284;SDS011;25997;50.214;19.354;2023-05-10T15:14:04;4.03;;;2.45;;
40284;SDS011;25997;50.214;19.354;2023-05-10T15:17:06;2.78;;;2.00;;
40284;SDS011;25997;50.214;19.354;2023-05-10T15:20:09;2.85;;;2.28;;
40284;SDS011;25997;50.214;19.354;2023-05-10T15:23:13;4.57;;;2.35;;
40284;SDS011;25997;50.214;19.354;2023-05-10T15:26:15;3.45;;;2.28;;
40284;SDS011;25997;50.214;19.354;2023-05-10T15:29:18;2.70;;;2.00;;
40284;SDS011;25997;50.214;19.354;2023-05-10T15:32:21;3.63;;;2.33;;
40284;SDS011;25997;50.214;19.354;2023-05-10T15:35:23;9.75;;;6.22;;
40284;SDS011;25997;50.214;19.354;2023-05-10T15:38:29;6.88;;;4.40;;
40284;SDS011;25997;50.214;19.354;2023-05-10T15:41:32;3.42;;;2.35;;
40284;SDS011;25997;50.214;19.354;2023-05-10T15:44:34;2.92;;;2.25;;
40284;SDS011;25997;50.214;19.354;2023-05-10T15:47:38;3.53;;;2.58;;
40284;SDS011;25997;50.214;19.354;2023-05-10T15:50:41;4.70;;;2.30;;
40284;SDS011;25997;50.214;19.354;2023-05-10T15:53:45;2.97;;;2.00;;
40284;SDS011;25997;50.214;19.354;2023-05-10T15:56:47;4.97;;;3.65;;
40284;SDS011;25997;50.214;19.354;2023-05-10T15:59:49;3.30;;;2.80;;
40284;SDS011;25997;50.214;19.354;2023-05-10T16:02:52;3.08;;;2.33;;
40284;SDS011;25997;50.214;19.354;2023-05-10T16:05:54;4.05;;;2.40;;
40284;SDS011;25997;50.214;19.354;2023-05-10T16:08:58;3.67;;;2.55;;
40284;SDS011;25997;50.214;19.354;2023-05-10T16:12:01;4.80;;;2.67;;
40284;SDS011;25997;50.214;19.354;2023-05-10T16:15:04;4.13;;;2.08;;
40284;SDS011;25997;50.214;19.354;2023-05-10T16:18:07;4.25;;;2.35;;
40284;SDS011;25997;50.214;19.354;2023-05-10T16:21:10;3.97;;;2.33;;
40284;SDS011;25997;50.214;19.354;2023-05-10T16:24:14;4.13;;;2.42;;
40284;SDS011;25997;50.214;19.354;2023-05-10T16:27:16;4.57;;;2.00;;
40284;SDS011;25997;50.214;19.354;2023-05-10T16:30:19;3.03;;;2.55;;
40284;SDS011;25997;50.214;19.354;2023-05-10T16:33:21;7.47;;;3.08;;
40284;SDS011;25997;50.214;19.354;2023-05-10T16:36:24;3.90;;;2.70;;
40284;SDS011;25997;50.214;19.354;2023-05-10T16:39:28;4.75;;;2.42;;
40284;SDS011;25997;50.214;19.354;2023-05-10T16:42:30;3.83;;;1.85;;
40284;SDS011;25997;50.214;19.354;2023-05-10T16:45:33;2.53;;;1.90;;
40284;SDS011;25997;50.214;19.354;2023-05-10T16:48:36;4.13;;;2.13;;
40284;SDS011;25997;50.214;19.354;2023-05-10T16:51:39;2.92;;;2.20;;
40284;SDS011;25997;50.214;19.354;2023-05-10T16:54:43;2.90;;;2.22;;
40284;SDS011;25997;50.214;19.354;2023-05-10T16:57:46;3.10;;;2.10;;
40284;SDS011;25997;50.214;19.354;2023-05-10T17:00:48;4.13;;;2.05;;
40284;SDS011;25997;50.214;19.354;2023-05-10T17:03:51;2.72;;;2.00;;
40284;SDS011;25997;50.214;19.354;2023-05-10T17:06:54;3.42;;;2.47;;
40284;SDS011;25997;50.214;19.354;2023-05-10T17:09:57;3.08;;;2.03;;
40284;SDS011;25997;50.214;19.354;2023-05-10T17:13:00;3.20;;;2.08;;
40284;SDS011;25997;50.214;19.354;2023-05-10T17:16:03;5.28;;;2.28;;
40284;SDS011;25997;50.214;19.354;2023-05-10T17:19:07;2.90;;;2.00;;
40284;SDS011;25997;50.214;19.354;2023-05-10T17:22:11;3.38;;;2.25;;
40284;SDS011;25997;50.214;19.354;2023-05-10T17:25:15;2.78;;;2.00;;
40284;SDS011;25997;50.214;19.354;2023-05-10T17:28:17;5.00;;;2.28;;
40284;SDS011;25997;50.214;19.354;2023-05-10T17:31:20;3.22;;;1.75;;
40284;SDS011;25997;50.214;19.354;2023-05-10T17:34:23;3.03;;;1.90;;
40284;SDS011;25997;50.214;19.354;2023-05-10T17:37:25;3.10;;;2.38;;
40284;SDS011;25997;50.214;19.354;2023-05-10T17:40:30;3.42;;;2.17;;
40284;SDS011;25997;50.214;19.354;2023-05-10T17:43:32;3.90;;;2.88;;
40284;SDS011;25997;50.214;19.354;2023-05-10T17:46:35;5.10;;;3.17;;
40284;SDS011;25997;50.214;19.354;2023-05-10T17:49:37;5.53;;;3.20;;
40284;SDS011;25997;50.214;19.354;2023-05-10T17:52:40;5.85;;;3.00;;
40284;SDS011;25997;50.214;19.354;2023-05-10T17:55:44;5.38;;;2.83;;
40284;SDS011;25997;50.214;19.354;2023-05-10T17:58:47;7.82;;;3.42;;
40284;SDS011;25997;50.214;19.354;2023-05-10T18:01:50;8.75;;;3.88;;
40284;SDS011;25997;50.214;19.354;2023-05-10T18:04:52;4.95;;;2.95;;
40284;SDS011;25997;50.214;19.354;2023-05-10T18:07:55;4.70;;;2.55;;
40284;SDS011;25997;50.214;19.354;2023-05-10T18:10:59;4.47;;;2.75;;
40284;SDS011;25997;50.214;19.354;2023-05-10T18:14:01;4.68;;;2.55;;